createdAt,value
2018-12-25T00:00:20.946Z,7.37
2018-12-25T00:02:52.758Z,6.73
2018-12-25T00:05:23.175Z,6.83
2018-12-25T00:07:53.367Z,7.30
2018-12-25T00:10:23.670Z,7.77
2018-12-25T00:12:53.874Z,7.17
2018-12-25T00:15:24.151Z,6.83
2018-12-25T00:17:54.383Z,6.30
2018-12-25T00:20:24.594Z,6.60
2018-12-25T00:22:54.962Z,6.67
2018-12-25T00:25:25.243Z,5.97
2018-12-25T00:27:55.522Z,6.00
2018-12-25T00:30:25.707Z,6.13
2018-12-25T00:32:55.903Z,6.30
2018-12-25T00:35:26.104Z,6.30
2018-12-25T00:37:56.507Z,6.10
2018-12-25T00:40:26.738Z,6.67
2018-12-25T00:42:57.074Z,8.00
2018-12-25T00:45:27.344Z,5.83
2018-12-25T00:47:57.552Z,6.10
2018-12-25T00:50:27.850Z,6.47
2018-12-25T00:52:58.010Z,6.10
2018-12-25T00:55:28.320Z,5.47
2018-12-25T00:57:58.544Z,7.10
2018-12-25T01:00:28.801Z,6.63
2018-12-25T01:02:59.014Z,6.97
2018-12-25T01:05:29.190Z,7.27
2018-12-25T01:07:59.469Z,6.93
2018-12-25T01:10:29.729Z,6.80
2018-12-25T01:13:00.095Z,6.67
2018-12-25T01:15:30.273Z,6.60
2018-12-25T01:18:00.612Z,7.30
2018-12-25T01:20:30.851Z,6.40
2018-12-25T01:23:01.179Z,6.63
2018-12-25T01:25:31.458Z,6.33
2018-12-25T01:28:02.118Z,7.03
2018-12-25T01:30:32.277Z,5.97
2018-12-25T01:33:02.633Z,5.90
2018-12-25T01:35:32.831Z,6.40
2018-12-25T01:38:03.128Z,6.77
2018-12-25T01:40:33.381Z,6.27
2018-12-25T01:43:03.821Z,6.43
2018-12-25T01:45:34.033Z,6.30
2018-12-25T01:48:04.185Z,6.70
2018-12-25T01:50:34.386Z,6.47
2018-12-25T01:53:04.698Z,6.67
2018-12-25T01:55:35.061Z,6.40
2018-12-25T01:58:05.286Z,6.43
2018-12-25T02:00:36.670Z,6.67
2018-12-25T02:03:06.961Z,6.03
2018-12-25T02:05:37.194Z,6.20
2018-12-25T02:08:07.570Z,6.00
2018-12-25T02:10:37.880Z,6.37
2018-12-25T02:13:08.059Z,5.43
2018-12-25T02:15:38.357Z,5.40
2018-12-25T02:18:08.573Z,5.40
2018-12-25T02:20:38.717Z,5.60
2018-12-25T02:23:09.047Z,5.30
2018-12-25T02:25:39.436Z,5.27
2018-12-25T02:28:09.694Z,5.53
2018-12-25T02:30:40.013Z,5.90
2018-12-25T02:33:10.217Z,5.00
2018-12-25T02:35:40.695Z,5.00
2018-12-25T02:38:10.935Z,5.20
2018-12-25T02:40:41.208Z,5.80
2018-12-25T02:43:11.451Z,5.37
2018-12-25T02:45:41.796Z,5.73
2018-12-25T02:48:12.015Z,5.13
2018-12-25T02:50:42.278Z,5.37
2018-12-25T02:53:12.602Z,5.50
2018-12-25T02:55:42.754Z,5.67
2018-12-25T02:58:13.052Z,4.90
2018-12-25T03:00:43.278Z,5.27
2018-12-25T03:03:13.634Z,5.40
2018-12-25T03:05:43.893Z,5.70
2018-12-25T03:08:14.183Z,5.50
2018-12-25T03:10:44.382Z,5.03
2018-12-25T03:13:14.623Z,5.17
2018-12-25T03:15:44.878Z,5.83
2018-12-25T03:18:15.086Z,5.40
2018-12-25T03:20:45.269Z,5.53
2018-12-25T03:23:15.521Z,5.50
2018-12-25T03:25:45.727Z,5.30
2018-12-25T03:28:15.955Z,5.40
2018-12-25T03:30:46.121Z,5.60
2018-12-25T03:33:16.375Z,6.00
2018-12-25T03:35:46.576Z,8.90
2018-12-25T03:38:16.730Z,10.60
2018-12-25T03:40:47.013Z,9.43
2018-12-25T03:43:17.226Z,8.07
2018-12-25T03:45:47.443Z,7.07
2018-12-25T03:48:17.679Z,6.67
2018-12-25T03:50:47.916Z,6.67
2018-12-25T03:53:18.235Z,5.90
2018-12-25T03:55:48.406Z,5.90
2018-12-25T03:58:18.556Z,5.57
2018-12-25T04:00:48.754Z,6.10
2018-12-25T04:03:18.959Z,5.80
2018-12-25T04:05:49.199Z,5.97
2018-12-25T04:08:19.372Z,6.30
2018-12-25T04:10:49.644Z,6.13
2018-12-25T04:13:19.873Z,6.13
2018-12-25T04:15:50.115Z,6.53
2018-12-25T04:18:20.386Z,6.47
2018-12-25T04:20:50.525Z,6.63
2018-12-25T04:23:20.752Z,6.77
2018-12-25T04:25:51.011Z,7.00
2018-12-25T04:28:21.190Z,6.93
2018-12-25T04:30:51.574Z,6.27
2018-12-25T04:33:21.815Z,6.97
2018-12-25T04:35:52.082Z,6.97
2018-12-25T04:38:22.228Z,7.33
2018-12-25T04:40:52.374Z,7.30
2018-12-25T04:43:22.520Z,7.40
2018-12-25T04:45:52.685Z,7.97
2018-12-25T04:48:22.911Z,8.73
2018-12-25T04:50:53.123Z,8.93
2018-12-25T04:53:23.440Z,10.03
2018-12-25T04:55:53.714Z,9.17
2018-12-25T04:58:23.877Z,9.67
2018-12-25T05:00:54.101Z,9.97
2018-12-25T05:03:24.321Z,10.60
2018-12-25T05:05:54.517Z,9.40
2018-12-25T05:08:24.694Z,9.30
2018-12-25T05:10:54.952Z,8.77
2018-12-25T05:13:25.245Z,10.30
2018-12-25T05:15:55.402Z,10.77
2018-12-25T05:18:25.606Z,9.73
2018-12-25T05:20:55.788Z,9.27
2018-12-25T05:23:26.149Z,9.60
2018-12-25T05:25:56.384Z,9.43
2018-12-25T05:28:26.668Z,9.67
2018-12-25T05:30:56.895Z,9.43
2018-12-25T05:33:27.086Z,9.23
2018-12-25T05:35:57.300Z,10.80
2018-12-25T05:38:27.632Z,11.17
2018-12-25T05:40:57.855Z,10.97
2018-12-25T05:43:28.062Z,11.47
2018-12-25T05:45:58.215Z,12.40
2018-12-25T05:48:28.425Z,11.20
2018-12-25T05:50:58.592Z,10.77
2018-12-25T05:53:28.809Z,10.20
2018-12-25T05:55:59.169Z,10.47
2018-12-25T05:58:29.351Z,10.43
2018-12-25T06:01:00.683Z,11.07
2018-12-25T06:03:30.946Z,11.23
2018-12-25T06:06:01.122Z,11.47
2018-12-25T06:08:31.276Z,12.47
2018-12-25T06:11:01.441Z,13.10
2018-12-25T06:13:31.654Z,13.07
2018-12-25T06:16:01.882Z,13.30
2018-12-25T06:18:32.172Z,14.50
2018-12-25T06:21:02.405Z,12.90
2018-12-25T06:23:32.777Z,13.97
2018-12-25T06:26:03.013Z,12.97
2018-12-25T06:28:33.178Z,13.77
2018-12-25T06:31:03.605Z,13.47
2018-12-25T06:33:33.789Z,13.53
2018-12-25T06:36:03.982Z,14.80
2018-12-25T06:38:34.288Z,14.27
2018-12-25T06:41:04.576Z,15.87
2018-12-25T06:43:34.818Z,15.03
2018-12-25T06:46:05.140Z,16.43
2018-12-25T06:48:35.449Z,16.97
2018-12-25T06:51:05.611Z,18.47
2018-12-25T06:53:35.925Z,17.60
2018-12-25T06:56:06.122Z,18.37
2018-12-25T06:58:36.398Z,18.13
2018-12-25T07:01:06.615Z,18.87
2018-12-25T07:03:36.883Z,19.17
2018-12-25T07:06:07.151Z,18.90
2018-12-25T07:08:37.338Z,18.77
2018-12-25T07:11:07.501Z,18.30
2018-12-25T07:13:37.770Z,19.43
2018-12-25T07:16:08.071Z,19.90
2018-12-25T07:18:38.325Z,20.90
2018-12-25T07:21:12.212Z,21.40
2018-12-25T07:23:40.588Z,23.83
2018-12-25T07:26:10.882Z,24.20
2018-12-25T07:28:41.113Z,25.17
2018-12-25T07:31:11.258Z,25.47
2018-12-25T07:33:41.446Z,23.17
2018-12-25T07:36:11.604Z,23.30
2018-12-25T07:38:41.805Z,24.77
2018-12-25T07:41:12.035Z,24.10
2018-12-25T07:43:42.376Z,22.17
2018-12-25T07:46:12.646Z,23.60
2018-12-25T07:48:42.853Z,25.03
2018-12-25T07:51:20.535Z,23.77
2018-12-25T07:53:44.957Z,24.53
2018-12-25T07:56:15.263Z,25.53
2018-12-25T07:58:45.430Z,26.63
2018-12-25T08:01:15.670Z,23.70
2018-12-25T08:03:45.831Z,25.00
2018-12-25T08:06:16.022Z,24.67
2018-12-25T08:08:46.186Z,27.10
2018-12-25T08:11:16.340Z,25.20
2018-12-25T08:13:46.584Z,26.37
2018-12-25T08:16:16.818Z,25.90
2018-12-25T08:18:47.074Z,26.23
2018-12-25T08:21:17.230Z,27.47
2018-12-25T08:23:47.451Z,29.47
2018-12-25T08:26:17.621Z,27.10
2018-12-25T08:28:47.798Z,26.80
2018-12-25T08:31:18.002Z,25.83
2018-12-25T08:33:48.190Z,23.47
2018-12-25T08:36:18.389Z,25.17
2018-12-25T08:38:48.614Z,24.87
2018-12-25T08:41:18.753Z,25.87
2018-12-25T08:43:49.026Z,26.47
2018-12-25T08:46:19.242Z,28.10
2018-12-25T08:48:49.449Z,27.13
2018-12-25T08:51:19.710Z,27.00
2018-12-25T08:53:49.933Z,26.30
2018-12-25T08:56:20.177Z,24.50
2018-12-25T08:58:50.418Z,23.97
2018-12-25T09:01:20.594Z,24.63
2018-12-25T09:03:50.779Z,22.90
2018-12-25T09:06:21.038Z,25.77
2018-12-25T09:08:51.310Z,26.67
2018-12-25T09:11:21.457Z,28.87
2018-12-25T09:13:51.647Z,32.03
2018-12-25T09:16:21.882Z,29.77
2018-12-25T09:18:52.108Z,30.23
2018-12-25T09:21:22.318Z,27.50
2018-12-25T09:23:52.585Z,27.73
2018-12-25T09:26:22.780Z,27.23
2018-12-25T09:28:53.042Z,26.07
2018-12-25T09:31:23.209Z,25.27
2018-12-25T09:33:53.398Z,23.43
2018-12-25T09:36:23.615Z,24.30
2018-12-25T09:38:53.893Z,23.33
2018-12-25T09:41:24.230Z,24.07
2018-12-25T09:43:54.507Z,23.30
2018-12-25T09:46:24.781Z,24.67
2018-12-25T09:48:54.977Z,24.93
2018-12-25T09:51:25.266Z,25.30
2018-12-25T09:53:55.474Z,23.07
2018-12-25T09:56:25.780Z,24.97
2018-12-25T09:58:56.021Z,24.77
2018-12-25T10:01:26.183Z,24.83
2018-12-25T10:03:56.380Z,23.97
2018-12-25T10:06:26.541Z,23.60
2018-12-25T10:08:56.769Z,24.30
2018-12-25T10:11:26.990Z,22.63
2018-12-25T10:13:57.313Z,23.13
2018-12-25T10:16:29.281Z,22.67
2018-12-25T10:18:59.609Z,22.87
2018-12-25T10:21:29.790Z,22.77
2018-12-25T10:24:00.146Z,22.90
2018-12-25T10:26:30.526Z,22.30
2018-12-25T10:29:00.673Z,23.33
2018-12-25T10:31:30.976Z,23.20
2018-12-25T10:34:01.302Z,23.93
2018-12-25T10:36:31.741Z,26.10
2018-12-25T10:39:02.171Z,22.93
2018-12-25T10:41:33.498Z,23.03
2018-12-25T10:44:03.744Z,24.77
2018-12-25T10:46:33.925Z,22.87
2018-12-25T10:49:04.251Z,22.73
2018-12-25T10:51:34.491Z,24.17
2018-12-25T10:54:04.726Z,23.60
2018-12-25T10:56:35.076Z,24.50
2018-12-25T10:59:05.390Z,25.97
2018-12-25T11:01:37.133Z,24.13
2018-12-25T11:04:07.297Z,24.70
2018-12-25T11:06:37.466Z,28.17
2018-12-25T11:09:07.714Z,30.27
2018-12-25T11:11:37.932Z,33.63
2018-12-25T11:14:08.092Z,32.33
2018-12-25T11:16:38.593Z,32.73
2018-12-25T11:19:08.811Z,32.27
2018-12-25T11:21:39.061Z,33.60
2018-12-25T11:24:09.321Z,32.07
2018-12-25T11:26:39.629Z,25.80
2018-12-25T11:29:09.806Z,30.23
2018-12-25T11:31:40.082Z,28.80
2018-12-25T11:34:10.237Z,26.07
2018-12-25T11:36:40.566Z,27.20
2018-12-25T11:39:10.854Z,27.97
2018-12-25T11:41:41.130Z,26.97
2018-12-25T11:44:11.362Z,27.13
2018-12-25T11:46:41.668Z,29.20
2018-12-25T11:49:13.330Z,28.17
2018-12-25T11:51:43.642Z,26.63
2018-12-25T11:54:13.939Z,29.10
2018-12-25T11:56:44.285Z,27.10
2018-12-25T11:59:14.578Z,26.73
2018-12-25T12:01:44.786Z,28.97
2018-12-25T12:04:15.002Z,29.10
2018-12-25T12:06:45.410Z,27.73
2018-12-25T12:09:15.678Z,27.20
2018-12-25T12:11:45.975Z,28.23
2018-12-25T12:14:16.138Z,28.97
2018-12-25T12:16:46.344Z,29.93
2018-12-25T12:19:16.697Z,32.23
2018-12-25T12:21:46.887Z,30.80
2018-12-25T12:24:17.363Z,32.20
2018-12-25T12:26:47.616Z,32.23
2018-12-25T12:29:17.977Z,54.83
2018-12-25T12:31:48.363Z,31.10
2018-12-25T12:34:18.604Z,32.13
2018-12-25T12:36:48.814Z,33.87
2018-12-25T12:39:19.186Z,31.73
2018-12-25T12:41:49.393Z,29.23
2018-12-25T12:44:19.583Z,31.00
2018-12-25T12:46:49.775Z,32.13
2018-12-25T12:49:20.071Z,31.40
2018-12-25T12:51:50.241Z,31.83
2018-12-25T12:54:20.447Z,34.23
2018-12-25T12:56:50.745Z,32.67
2018-12-25T12:59:21.303Z,30.17
2018-12-25T13:01:51.461Z,28.30
2018-12-25T13:04:21.703Z,31.87
2018-12-25T13:06:51.943Z,32.20
2018-12-25T13:09:22.100Z,32.03
2018-12-25T13:11:53.318Z,31.87
2018-12-25T13:14:23.676Z,30.83
2018-12-25T13:16:53.966Z,30.30
2018-12-25T13:19:24.189Z,29.63
2018-12-25T13:21:54.457Z,31.80
2018-12-25T13:24:24.708Z,29.80
2018-12-25T13:26:54.991Z,27.57
2018-12-25T13:29:25.213Z,29.30
2018-12-25T13:31:55.539Z,26.97
2018-12-25T13:34:25.771Z,27.43
2018-12-25T13:36:55.958Z,26.53
2018-12-25T13:39:26.198Z,26.80
2018-12-25T13:41:56.557Z,27.70
2018-12-25T13:44:26.874Z,27.93
2018-12-25T13:46:57.086Z,26.20
2018-12-25T13:49:27.377Z,25.67
2018-12-25T13:51:57.539Z,27.10
2018-12-25T13:54:27.856Z,26.77
2018-12-25T13:56:58.165Z,26.07
2018-12-25T13:59:28.430Z,27.07
2018-12-25T14:01:58.646Z,28.17
2018-12-25T14:04:28.847Z,28.80
2018-12-25T14:06:59.009Z,26.63
2018-12-25T14:09:29.243Z,26.10
2018-12-25T14:11:59.451Z,30.63
2018-12-25T14:14:29.661Z,28.60
2018-12-25T14:16:59.838Z,28.93
2018-12-25T14:19:29.990Z,28.47
2018-12-25T14:22:00.315Z,34.13
2018-12-25T14:24:30.553Z,31.37
2018-12-25T14:27:00.751Z,29.87
2018-12-25T14:29:30.941Z,32.10
2018-12-25T14:32:01.161Z,27.47
2018-12-25T14:34:31.352Z,25.37
2018-12-25T14:37:01.621Z,25.63
2018-12-25T14:39:31.890Z,27.00
2018-12-25T14:42:02.079Z,25.47
2018-12-25T14:44:32.235Z,24.50
2018-12-25T14:47:02.470Z,52.43
2018-12-25T14:49:32.634Z,51.57
2018-12-25T14:52:02.921Z,56.20
2018-12-25T14:54:33.091Z,54.97
2018-12-25T14:57:03.262Z,43.00
2018-12-25T14:59:33.479Z,41.67
2018-12-25T15:02:03.662Z,40.20
2018-12-25T15:04:33.834Z,37.40
2018-12-25T15:07:04.045Z,34.90
2018-12-25T15:09:34.227Z,30.73
2018-12-25T15:12:04.371Z,35.87
2018-12-25T15:14:34.557Z,47.37
2018-12-25T15:17:04.755Z,47.07
2018-12-25T15:19:34.955Z,41.17
2018-12-25T15:22:05.217Z,36.53
2018-12-25T15:24:35.374Z,34.57
2018-12-25T15:27:05.542Z,35.90
2018-12-25T15:29:35.854Z,34.80
2018-12-25T15:32:06.639Z,31.77
2018-12-25T15:34:39.207Z,32.57
2018-12-25T15:37:09.907Z,31.47
2018-12-25T15:39:40.260Z,31.20
2018-12-25T15:42:10.809Z,34.33
2018-12-25T15:44:41.517Z,37.37
2018-12-25T15:47:12.211Z,34.20
2018-12-25T15:49:42.831Z,47.40
2018-12-25T15:52:14.903Z,46.23
2018-12-25T15:54:45.600Z,41.53
2018-12-25T15:57:15.993Z,37.27
2018-12-25T15:59:46.313Z,39.03
2018-12-25T16:02:16.551Z,41.20
2018-12-25T16:04:46.769Z,45.63
2018-12-25T16:07:16.986Z,45.70
2018-12-25T16:09:47.193Z,39.20
2018-12-25T16:12:17.339Z,40.10
2018-12-25T16:14:47.537Z,37.20
2018-12-25T16:17:17.719Z,37.00
2018-12-25T16:19:47.953Z,35.07
2018-12-25T16:22:18.172Z,37.57
2018-12-25T16:24:48.352Z,37.30
2018-12-25T16:27:18.514Z,34.03
2018-12-25T16:29:48.756Z,34.53
2018-12-25T16:32:18.970Z,37.27
2018-12-25T16:34:49.244Z,36.03
2018-12-25T16:37:19.403Z,36.97
2018-12-25T16:39:49.610Z,35.00
2018-12-25T16:42:19.842Z,35.73
2018-12-25T16:44:50.036Z,35.47
2018-12-25T16:47:20.203Z,38.83
2018-12-25T16:49:50.378Z,38.80
2018-12-25T16:52:20.522Z,37.90
2018-12-25T16:54:50.695Z,36.83
2018-12-25T16:57:20.862Z,36.70
2018-12-25T16:59:51.061Z,35.50
2018-12-25T17:02:21.334Z,37.00
2018-12-25T17:04:51.574Z,37.60
2018-12-25T17:07:21.840Z,39.10
2018-12-25T17:09:52.020Z,40.53
2018-12-25T17:12:22.182Z,39.20
2018-12-25T17:14:52.393Z,41.83
2018-12-25T17:17:22.634Z,40.63
2018-12-25T17:19:52.836Z,38.87
2018-12-25T17:22:23.015Z,40.37
2018-12-25T17:24:53.483Z,39.63
2018-12-25T17:27:23.870Z,40.77
2018-12-25T17:29:54.070Z,41.17
2018-12-25T17:32:24.300Z,40.83
2018-12-25T17:34:54.526Z,38.97
2018-12-25T17:37:24.787Z,37.03
2018-12-25T17:39:54.954Z,37.70
2018-12-25T17:42:25.150Z,37.73
2018-12-25T17:44:55.343Z,42.47
2018-12-25T17:47:25.584Z,39.10
2018-12-25T17:49:55.814Z,41.77
2018-12-25T17:52:25.979Z,44.13
2018-12-25T17:54:56.229Z,47.23
2018-12-25T17:57:26.526Z,41.73
2018-12-25T17:59:56.956Z,40.37
2018-12-25T18:02:27.219Z,44.80
2018-12-25T18:04:57.423Z,37.70
2018-12-25T18:07:27.771Z,38.80
2018-12-25T18:09:58.021Z,45.50
2018-12-25T18:12:28.217Z,46.07
2018-12-25T18:14:58.386Z,53.77
2018-12-25T18:17:28.684Z,50.47
2018-12-25T18:19:58.881Z,54.10
2018-12-25T18:22:29.074Z,44.63
2018-12-25T18:24:59.243Z,40.30
2018-12-25T18:27:29.443Z,39.50
2018-12-25T18:29:59.806Z,38.23
2018-12-25T18:32:30.056Z,35.77
2018-12-25T18:35:00.356Z,37.00
2018-12-25T18:37:30.668Z,40.43
2018-12-25T18:40:00.985Z,43.50
2018-12-25T18:42:31.502Z,46.47
2018-12-25T18:45:03.876Z,44.20
2018-12-25T18:47:33.637Z,42.47
2018-12-25T18:50:03.954Z,41.93
2018-12-25T18:52:34.135Z,42.43
2018-12-25T18:55:04.329Z,36.20
2018-12-25T18:57:34.635Z,36.83
2018-12-25T19:00:05.789Z,33.43
2018-12-25T19:02:36.051Z,32.10
2018-12-25T19:05:06.480Z,31.90
2018-12-25T19:07:36.760Z,30.20
2018-12-25T19:10:09.017Z,32.13
2018-12-25T19:12:39.572Z,35.13
2018-12-25T19:15:22.439Z,35.53
2018-12-25T19:17:54.856Z,39.10
2018-12-25T19:20:25.509Z,34.10
2018-12-25T19:22:56.143Z,33.27
2018-12-25T19:25:26.737Z,32.23
2018-12-25T19:27:57.338Z,37.50
2018-12-25T19:30:31.335Z,34.90
2018-12-25T19:33:02.116Z,35.03
2018-12-25T19:35:33.151Z,43.60
2018-12-25T19:38:03.477Z,39.47
2018-12-25T19:40:33.683Z,37.37
2018-12-25T19:43:03.970Z,36.13
2018-12-25T19:45:34.750Z,35.60
2018-12-25T19:48:05.121Z,32.07
2018-12-25T19:50:35.358Z,35.73
2018-12-25T19:53:05.502Z,34.60
2018-12-25T19:55:35.658Z,37.80
2018-12-25T19:58:05.793Z,36.83
2018-12-25T20:00:35.985Z,36.03
2018-12-25T20:03:16.391Z,37.37
2018-12-25T20:06:12.900Z,32.47
2018-12-25T20:09:01.643Z,32.60
2018-12-25T20:12:22.638Z,32.87
2018-12-25T20:15:23.626Z,33.03
2018-12-25T20:18:36.128Z,28.93
2018-12-25T20:22:00.734Z,27.33
2018-12-25T20:25:02.086Z,30.67
2018-12-25T20:28:00.500Z,30.57
2018-12-25T20:31:06.556Z,24.93
2018-12-25T20:34:25.270Z,26.17
2018-12-25T20:37:50.406Z,25.63
2018-12-25T20:41:16.791Z,24.83
2018-12-25T20:44:12.191Z,24.47
2018-12-25T20:47:26.955Z,22.33
2018-12-25T20:50:40.407Z,20.33
2018-12-25T20:54:12.857Z,22.63
2018-12-25T20:57:25.474Z,24.60
2018-12-25T21:00:11.208Z,25.70
2018-12-25T21:03:34.538Z,24.17
2018-12-25T21:06:51.251Z,25.90
2018-12-25T21:09:58.563Z,25.13
2018-12-25T21:13:04.493Z,20.63
2018-12-25T21:16:05.651Z,22.50
2018-12-25T21:19:41.904Z,24.13
2018-12-25T21:22:43.283Z,25.33
2018-12-25T21:25:51.012Z,24.63
2018-12-25T21:28:19.285Z,24.97
2018-12-25T21:30:49.521Z,26.73
2018-12-25T21:33:19.784Z,25.77
2018-12-25T21:35:50.026Z,24.17
2018-12-25T21:38:20.360Z,24.10
2018-12-25T21:40:50.582Z,25.57
2018-12-25T21:43:20.909Z,24.93
2018-12-25T21:45:51.153Z,26.20
2018-12-25T21:48:21.366Z,27.40
2018-12-25T21:50:52.034Z,27.87
2018-12-25T21:53:23.725Z,26.27
2018-12-25T21:55:54.385Z,25.53
2018-12-25T21:58:24.531Z,26.10
2018-12-25T22:00:54.956Z,27.83
2018-12-25T22:03:26.433Z,25.83
2018-12-25T22:05:56.812Z,26.37
2018-12-25T22:08:28.216Z,26.60
2018-12-25T22:10:58.549Z,27.23
2018-12-25T22:13:28.841Z,26.03
2018-12-25T22:15:59.257Z,25.37
2018-12-25T22:18:29.583Z,25.43
2018-12-25T22:20:59.737Z,25.47
2018-12-25T22:23:29.951Z,26.87
2018-12-25T22:26:00.329Z,26.47
2018-12-25T22:28:30.538Z,26.10
2018-12-25T22:31:00.850Z,26.73
2018-12-25T22:33:31.159Z,25.13
2018-12-25T22:36:01.415Z,25.50
2018-12-25T22:38:31.711Z,25.83
2018-12-25T22:41:02.011Z,24.83
2018-12-25T22:43:32.374Z,25.50
2018-12-25T22:46:02.690Z,23.40
2018-12-25T22:48:32.845Z,25.07
2018-12-25T22:51:03.166Z,24.27
2018-12-25T22:53:33.462Z,24.30
2018-12-25T22:56:03.670Z,26.67
2018-12-25T22:58:34.048Z,26.63
2018-12-25T23:01:04.499Z,24.27
2018-12-25T23:03:34.857Z,22.40
2018-12-25T23:06:05.037Z,22.60
2018-12-25T23:08:35.404Z,21.87
2018-12-25T23:11:05.610Z,22.77
2018-12-25T23:13:35.749Z,24.20
2018-12-25T23:16:07.943Z,26.17
2018-12-25T23:18:37.883Z,25.63
2018-12-25T23:21:08.155Z,23.70
2018-12-25T23:23:38.310Z,24.13
2018-12-25T23:26:08.527Z,22.90
2018-12-25T23:28:38.794Z,23.00
2018-12-25T23:31:09.100Z,21.13
2018-12-25T23:33:39.493Z,24.27
2018-12-25T23:36:09.721Z,24.43
2018-12-25T23:38:39.973Z,25.97
2018-12-25T23:41:10.230Z,23.47
2018-12-25T23:43:40.510Z,23.17
2018-12-25T23:46:10.762Z,25.23
2018-12-25T23:48:40.943Z,20.53
2018-12-25T23:51:11.221Z,25.07
2018-12-25T23:53:41.446Z,22.63
2018-12-25T23:56:11.726Z,24.60
2018-12-25T23:58:41.873Z,27.93
